sensor_id;sensor_type;location;lat;lon;timestamp;temperature;humidity
31379;DHT22;61664;48.112;11.662;2023-03-20T00:03:51;11.50;78.90
31379;DHT22;61664;48.112;11.662;2023-03-20T00:06:23;11.60;80.00
31379;DHT22;61664;48.112;11.662;2023-03-20T00:08:53;11.50;79.90
31379;DHT22;61664;48.112;11.662;2023-03-20T00:11:28;11.40;80.20
31379;DHT22;61664;48.112;11.662;2023-03-20T00:13:59;11.50;79.90
31379;DHT22;61664;48.112;11.662;2023-03-20T00:16:32;11.50;80.50
31379;DHT22;61664;48.112;11.662;2023-03-20T00:19:02;11.50;80.20
31379;DHT22;61664;48.112;11.662;2023-03-20T00:21:30;11.50;80.80
31379;DHT22;61664;48.112;11.662;2023-03-20T00:23:57;11.50;80.80
31379;DHT22;61664;48.112;11.662;2023-03-20T00:26:27;11.50;80.70
31379;DHT22;61664;48.112;11.662;2023-03-20T00:28:58;11.50;80.70
31379;DHT22;61664;48.112;11.662;2023-03-20T00:31:30;11.50;80.70
31379;DHT22;61664;48.112;11.662;2023-03-20T00:34:00;11.50;80.60
31379;DHT22;61664;48.112;11.662;2023-03-20T00:36:29;11.50;80.60
31379;DHT22;61664;48.112;11.662;2023-03-20T00:38:56;11.50;80.70
31379;DHT22;61664;48.112;11.662;2023-03-20T00:41:43;11.50;81.20
31379;DHT22;61664;48.112;11.662;2023-03-20T00:46:58;11.50;80.20
31379;DHT22;61664;48.112;11.662;2023-03-20T00:49:32;11.50;80.40
31379;DHT22;61664;48.112;11.662;2023-03-20T00:52:01;11.50;81.00
31379;DHT22;61664;48.112;11.662;2023-03-20T00:54:30;11.50;81.00
31379;DHT22;61664;48.112;11.662;2023-03-20T00:59:53;11.50;80.50
31379;DHT22;61664;48.112;11.662;2023-03-20T01:02:28;11.50;79.40
31379;DHT22;61664;48.112;11.662;2023-03-20T01:04:57;11.50;80.40
31379;DHT22;61664;48.112;11.662;2023-03-20T01:07:24;11.50;81.10
31379;DHT22;61664;48.112;11.662;2023-03-20T01:09:52;11.50;81.30
31379;DHT22;61664;48.112;11.662;2023-03-20T01:12:19;11.50;81.40
31379;DHT22;61664;48.112;11.662;2023-03-20T01:14:50;11.50;81.40
31379;DHT22;61664;48.112;11.662;2023-03-20T01:17:23;11.60;80.80
31379;DHT22;61664;48.112;11.662;2023-03-20T01:19:51;11.50;81.30
31379;DHT22;61664;48.112;11.662;2023-03-20T01:22:19;11.50;81.50
31379;DHT22;61664;48.112;11.662;2023-03-20T01:24:46;11.50;81.50
31379;DHT22;61664;48.112;11.662;2023-03-20T01:27:15;11.50;81.50
31379;DHT22;61664;48.112;11.662;2023-03-20T01:29:44;11.50;81.40
31379;DHT22;61664;48.112;11.662;2023-03-20T01:32:14;11.50;81.40
31379;DHT22;61664;48.112;11.662;2023-03-20T01:34:43;11.50;81.40
31379;DHT22;61664;48.112;11.662;2023-03-20T01:37:13;11.50;81.40
31379;DHT22;61664;48.112;11.662;2023-03-20T01:39:50;11.50;81.00
31379;DHT22;61664;48.112;11.662;2023-03-20T01:42:17;11.50;81.30
31379;DHT22;61664;48.112;11.662;2023-03-20T01:44:44;11.50;81.40
31379;DHT22;61664;48.112;11.662;2023-03-20T01:47:21;11.50;81.50
31379;DHT22;61664;48.112;11.662;2023-03-20T01:53:18;11.50;79.30
31379;DHT22;61664;48.112;11.662;2023-03-20T01:55:50;11.40;80.50
31379;DHT22;61664;48.112;11.662;2023-03-20T01:58:27;11.50;81.40
31379;DHT22;61664;48.112;11.662;2023-03-20T02:01:03;11.40;80.70
31379;DHT22;61664;48.112;11.662;2023-03-20T02:03:32;11.40;81.60
31379;DHT22;61664;48.112;11.662;2023-03-20T02:05:59;11.50;81.90
31379;DHT22;61664;48.112;11.662;2023-03-20T02:08:29;11.40;81.80
31379;DHT22;61664;48.112;11.662;2023-03-20T02:10:58;11.40;81.60
31379;DHT22;61664;48.112;11.662;2023-03-20T02:13:28;11.50;77.90
31379;DHT22;61664;48.112;11.662;2023-03-20T02:15:58;11.40;81.50
31379;DHT22;61664;48.112;11.662;2023-03-20T02:18:25;11.40;81.60
31379;DHT22;61664;48.112;11.662;2023-03-20T02:21:02;11.40;81.90
31379;DHT22;61664;48.112;11.662;2023-03-20T02:30:33;11.50;79.50
31379;DHT22;61664;48.112;11.662;2023-03-20T02:44:43;11.40;81.30
31379;DHT22;61664;48.112;11.662;2023-03-20T02:47:34;11.40;80.40
31379;DHT22;61664;48.112;11.662;2023-03-20T02:50:39;11.40;79.80
31379;DHT22;61664;48.112;11.662;2023-03-20T02:59:08;11.30;80.70
31379;DHT22;61664;48.112;11.662;2023-03-20T03:01:49;11.30;81.80
31379;DHT22;61664;48.112;11.662;2023-03-20T03:04:28;11.30;80.40
31379;DHT22;61664;48.112;11.662;2023-03-20T03:07:00;11.30;80.80
31379;DHT22;61664;48.112;11.662;2023-03-20T03:09:41;11.30;81.50
31379;DHT22;61664;48.112;11.662;2023-03-20T03:12:23;11.20;81.50
31379;DHT22;61664;48.112;11.662;2023-03-20T03:15:04;11.20;81.20
31379;DHT22;61664;48.112;11.662;2023-03-20T03:17:35;11.20;81.00
31379;DHT22;61664;48.112;11.662;2023-03-20T03:20:07;11.10;82.10
31379;DHT22;61664;48.112;11.662;2023-03-20T03:22:40;11.20;82.40
31379;DHT22;61664;48.112;11.662;2023-03-20T03:25:09;11.20;82.80
31379;DHT22;61664;48.112;11.662;2023-03-20T03:27:41;11.20;82.40
31379;DHT22;61664;48.112;11.662;2023-03-20T03:30:19;11.20;82.30
31379;DHT22;61664;48.112;11.662;2023-03-20T03:33:18;11.20;81.80
31379;DHT22;61664;48.112;11.662;2023-03-20T03:35:46;11.20;82.10
31379;DHT22;61664;48.112;11.662;2023-03-20T03:38:25;11.20;82.40
31379;DHT22;61664;48.112;11.662;2023-03-20T03:44:06;11.20;82.50
31379;DHT22;61664;48.112;11.662;2023-03-20T03:46:55;11.20;82.20
31379;DHT22;61664;48.112;11.662;2023-03-20T03:49:34;11.20;80.80
31379;DHT22;61664;48.112;11.662;2023-03-20T03:52:09;11.20;81.90
31379;DHT22;61664;48.112;11.662;2023-03-20T03:54:48;11.20;82.10
31379;DHT22;61664;48.112;11.662;2023-03-20T03:57:41;11.20;81.80
31379;DHT22;61664;48.112;11.662;2023-03-20T04:00:16;11.20;80.40
31379;DHT22;61664;48.112;11.662;2023-03-20T04:02:49;11.20;82.60
31379;DHT22;61664;48.112;11.662;2023-03-20T04:05:19;11.20;82.60
31379;DHT22;61664;48.112;11.662;2023-03-20T04:07:51;11.20;82.80
31379;DHT22;61664;48.112;11.662;2023-03-20T04:10:19;11.20;82.90
31379;DHT22;61664;48.112;11.662;2023-03-20T04:12:47;11.20;82.90
31379;DHT22;61664;48.112;11.662;2023-03-20T04:15:15;11.20;82.90
31379;DHT22;61664;48.112;11.662;2023-03-20T04:17:43;11.20;82.70
31379;DHT22;61664;48.112;11.662;2023-03-20T04:20:11;11.20;82.90
31379;DHT22;61664;48.112;11.662;2023-03-20T04:22:39;11.20;82.80
31379;DHT22;61664;48.112;11.662;2023-03-20T04:25:08;11.20;82.90
31379;DHT22;61664;48.112;11.662;2023-03-20T04:27:41;11.20;82.70
31379;DHT22;61664;48.112;11.662;2023-03-20T04:30:08;11.20;82.80
31379;DHT22;61664;48.112;11.662;2023-03-20T04:32:36;11.20;82.80
31379;DHT22;61664;48.112;11.662;2023-03-20T04:35:03;11.20;83.00
31379;DHT22;61664;48.112;11.662;2023-03-20T04:37:31;11.20;83.20
31379;DHT22;61664;48.112;11.662;2023-03-20T04:39:58;11.20;83.40
31379;DHT22;61664;48.112;11.662;2023-03-20T04:42:25;11.20;83.40
31379;DHT22;61664;48.112;11.662;2023-03-20T04:44:52;11.30;83.70
31379;DHT22;61664;48.112;11.662;2023-03-20T04:47:19;11.30;83.80
31379;DHT22;61664;48.112;11.662;2023-03-20T04:49:46;11.30;83.90
31379;DHT22;61664;48.112;11.662;2023-03-20T04:52:12;11.30;83.80
31379;DHT22;61664;48.112;11.662;2023-03-20T04:54:39;11.30;83.60
31379;DHT22;61664;48.112;11.662;2023-03-20T04:57:06;11.40;83.50
31379;DHT22;61664;48.112;11.662;2023-03-20T04:59:33;11.40;83.40
31379;DHT22;61664;48.112;11.662;2023-03-20T05:02:00;11.40;83.40
31379;DHT22;61664;48.112;11.662;2023-03-20T05:04:27;11.40;83.40
31379;DHT22;61664;48.112;11.662;2023-03-20T05:06:54;11.40;83.40
31379;DHT22;61664;48.112;11.662;2023-03-20T05:09:22;11.40;83.40
31379;DHT22;61664;48.112;11.662;2023-03-20T05:11:49;11.40;83.50
31379;DHT22;61664;48.112;11.662;2023-03-20T05:14:15;11.40;83.70
31379;DHT22;61664;48.112;11.662;2023-03-20T05:16:42;11.40;83.70
31379;DHT22;61664;48.112;11.662;2023-03-20T05:19:09;11.50;83.50
31379;DHT22;61664;48.112;11.662;2023-03-20T05:21:36;11.40;83.10
31379;DHT22;61664;48.112;11.662;2023-03-20T05:24:03;11.40;83.00
31379;DHT22;61664;48.112;11.662;2023-03-20T05:26:31;11.40;83.10
31379;DHT22;61664;48.112;11.662;2023-03-20T05:28:57;11.40;83.20
31379;DHT22;61664;48.112;11.662;2023-03-20T05:31:24;11.30;83.20
31379;DHT22;61664;48.112;11.662;2023-03-20T05:33:51;11.30;83.20
31379;DHT22;61664;48.112;11.662;2023-03-20T05:36:18;11.30;83.10
31379;DHT22;61664;48.112;11.662;2023-03-20T05:38:46;11.30;83.00
31379;DHT22;61664;48.112;11.662;2023-03-20T05:41:12;11.30;82.70
31379;DHT22;61664;48.112;11.662;2023-03-20T05:43:39;11.30;82.90
31379;DHT22;61664;48.112;11.662;2023-03-20T05:46:06;11.30;82.90
31379;DHT22;61664;48.112;11.662;2023-03-20T05:48:33;11.30;83.10
31379;DHT22;61664;48.112;11.662;2023-03-20T05:51:00;11.30;83.00
31379;DHT22;61664;48.112;11.662;2023-03-20T05:53:27;11.30;83.10
31379;DHT22;61664;48.112;11.662;2023-03-20T05:55:54;11.30;83.10
31379;DHT22;61664;48.112;11.662;2023-03-20T05:58:21;11.30;82.90
31379;DHT22;61664;48.112;11.662;2023-03-20T06:00:48;11.30;82.70
31379;DHT22;61664;48.112;11.662;2023-03-20T06:03:15;11.30;82.60
31379;DHT22;61664;48.112;11.662;2023-03-20T06:05:43;11.30;82.90
31379;DHT22;61664;48.112;11.662;2023-03-20T06:08:10;11.30;82.80
31379;DHT22;61664;48.112;11.662;2023-03-20T06:10:37;11.30;82.90
31379;DHT22;61664;48.112;11.662;2023-03-20T06:13:04;11.30;82.80
31379;DHT22;61664;48.112;11.662;2023-03-20T06:15:30;11.30;82.90
31379;DHT22;61664;48.112;11.662;2023-03-20T06:17:57;11.30;83.00
31379;DHT22;61664;48.112;11.662;2023-03-20T06:20:25;11.30;82.80
31379;DHT22;61664;48.112;11.662;2023-03-20T06:22:52;11.30;82.50
31379;DHT22;61664;48.112;11.662;2023-03-20T06:25:19;11.30;83.00
31379;DHT22;61664;48.112;11.662;2023-03-20T06:27:47;11.30;82.60
31379;DHT22;61664;48.112;11.662;2023-03-20T06:30:15;11.30;82.60
31379;DHT22;61664;48.112;11.662;2023-03-20T06:32:43;11.30;82.50
31379;DHT22;61664;48.112;11.662;2023-03-20T06:35:10;11.30;82.80
31379;DHT22;61664;48.112;11.662;2023-03-20T06:37:37;11.30;83.00
31379;DHT22;61664;48.112;11.662;2023-03-20T06:40:05;11.30;82.90
31379;DHT22;61664;48.112;11.662;2023-03-20T06:42:33;11.30;83.10
31379;DHT22;61664;48.112;11.662;2023-03-20T06:45:00;11.30;83.10
31379;DHT22;61664;48.112;11.662;2023-03-20T06:47:27;11.30;83.10
31379;DHT22;61664;48.112;11.662;2023-03-20T06:49:54;11.30;82.60
31379;DHT22;61664;48.112;11.662;2023-03-20T06:52:21;11.30;82.60
31379;DHT22;61664;48.112;11.662;2023-03-20T06:54:48;11.30;82.90
31379;DHT22;61664;48.112;11.662;2023-03-20T06:57:17;11.30;82.90
31379;DHT22;61664;48.112;11.662;2023-03-20T06:59:44;11.30;83.30
31379;DHT22;61664;48.112;11.662;2023-03-20T07:02:10;11.40;83.60
31379;DHT22;61664;48.112;11.662;2023-03-20T07:04:38;11.40;83.70
31379;DHT22;61664;48.112;11.662;2023-03-20T07:07:05;11.50;83.90
31379;DHT22;61664;48.112;11.662;2023-03-20T07:09:31;11.40;83.80
31379;DHT22;61664;48.112;11.662;2023-03-20T07:11:59;11.50;83.70
31379;DHT22;61664;48.112;11.662;2023-03-20T07:14:26;11.60;83.80
31379;DHT22;61664;48.112;11.662;2023-03-20T07:16:53;11.60;84.10
31379;DHT22;61664;48.112;11.662;2023-03-20T07:19:22;11.70;83.90
31379;DHT22;61664;48.112;11.662;2023-03-20T07:21:50;11.70;83.70
31379;DHT22;61664;48.112;11.662;2023-03-20T07:24:21;11.70;83.50
31379;DHT22;61664;48.112;11.662;2023-03-20T07:26:48;11.80;83.40
31379;DHT22;61664;48.112;11.662;2023-03-20T07:29:14;11.80;83.60
31379;DHT22;61664;48.112;11.662;2023-03-20T07:31:42;11.90;83.50
31379;DHT22;61664;48.112;11.662;2023-03-20T07:34:09;11.90;83.70
31379;DHT22;61664;48.112;11.662;2023-03-20T07:36:36;11.90;84.30
31379;DHT22;61664;48.112;11.662;2023-03-20T07:39:03;12.00;84.50
31379;DHT22;61664;48.112;11.662;2023-03-20T07:41:30;12.10;84.20
31379;DHT22;61664;48.112;11.662;2023-03-20T07:43:57;12.20;84.40
31379;DHT22;61664;48.112;11.662;2023-03-20T07:46:24;12.30;84.10
31379;DHT22;61664;48.112;11.662;2023-03-20T07:48:52;12.40;83.90
31379;DHT22;61664;48.112;11.662;2023-03-20T07:51:19;12.50;83.90
31379;DHT22;61664;48.112;11.662;2023-03-20T07:53:46;12.60;83.20
31379;DHT22;61664;48.112;11.662;2023-03-20T07:56:13;12.70;82.50
31379;DHT22;61664;48.112;11.662;2023-03-20T07:58:39;12.70;82.10
31379;DHT22;61664;48.112;11.662;2023-03-20T08:01:07;12.70;82.30
31379;DHT22;61664;48.112;11.662;2023-03-20T08:03:34;12.80;81.60
31379;DHT22;61664;48.112;11.662;2023-03-20T08:06:01;12.80;81.90
31379;DHT22;61664;48.112;11.662;2023-03-20T08:08:29;12.90;82.00
31379;DHT22;61664;48.112;11.662;2023-03-20T08:10:56;12.90;82.90
31379;DHT22;61664;48.112;11.662;2023-03-20T08:13:23;12.90;84.30
31379;DHT22;61664;48.112;11.662;2023-03-20T08:15:50;13.20;85.40
31379;DHT22;61664;48.112;11.662;2023-03-20T08:18:17;13.30;84.70
31379;DHT22;61664;48.112;11.662;2023-03-20T08:20:45;13.50;83.90
31379;DHT22;61664;48.112;11.662;2023-03-20T08:23:12;13.70;83.00
31379;DHT22;61664;48.112;11.662;2023-03-20T08:25:39;13.80;81.50
31379;DHT22;61664;48.112;11.662;2023-03-20T08:28:06;13.90;80.60
31379;DHT22;61664;48.112;11.662;2023-03-20T08:30:33;13.90;80.70
31379;DHT22;61664;48.112;11.662;2023-03-20T08:33:01;13.90;80.30
31379;DHT22;61664;48.112;11.662;2023-03-20T08:35:28;13.90;79.70
31379;DHT22;61664;48.112;11.662;2023-03-20T08:38:00;14.00;80.30
31379;DHT22;61664;48.112;11.662;2023-03-20T08:40:27;14.00;79.90
31379;DHT22;61664;48.112;11.662;2023-03-20T08:42:54;14.10;79.50
31379;DHT22;61664;48.112;11.662;2023-03-20T08:45:22;14.10;78.80
31379;DHT22;61664;48.112;11.662;2023-03-20T08:47:51;14.20;79.60
31379;DHT22;61664;48.112;11.662;2023-03-20T08:50:19;14.30;81.50
31379;DHT22;61664;48.112;11.662;2023-03-20T08:52:46;14.60;83.40
31379;DHT22;61664;48.112;11.662;2023-03-20T08:55:14;14.90;85.40
31379;DHT22;61664;48.112;11.662;2023-03-20T08:57:42;15.30;85.90
31379;DHT22;61664;48.112;11.662;2023-03-20T09:00:11;15.80;84.60
31379;DHT22;61664;48.112;11.662;2023-03-20T09:02:40;16.10;80.90
31379;DHT22;61664;48.112;11.662;2023-03-20T09:05:09;16.30;78.50
31379;DHT22;61664;48.112;11.662;2023-03-20T09:07:36;16.50;77.00
31379;DHT22;61664;48.112;11.662;2023-03-20T09:10:04;16.50;73.50
31379;DHT22;61664;48.112;11.662;2023-03-20T09:12:32;16.40;72.70
31379;DHT22;61664;48.112;11.662;2023-03-20T09:14:59;16.20;73.30
31379;DHT22;61664;48.112;11.662;2023-03-20T09:17:27;16.00;72.50
31379;DHT22;61664;48.112;11.662;2023-03-20T09:19:54;15.80;71.90
31379;DHT22;61664;48.112;11.662;2023-03-20T09:22:20;15.60;73.20
31379;DHT22;61664;48.112;11.662;2023-03-20T09:24:47;15.40;73.50
31379;DHT22;61664;48.112;11.662;2023-03-20T09:27:14;15.30;74.30
31379;DHT22;61664;48.112;11.662;2023-03-20T09:29:42;15.20;75.10
31379;DHT22;61664;48.112;11.662;2023-03-20T09:32:11;15.20;75.90
31379;DHT22;61664;48.112;11.662;2023-03-20T09:34:39;15.10;77.40
31379;DHT22;61664;48.112;11.662;2023-03-20T09:37:07;15.20;79.00
31379;DHT22;61664;48.112;11.662;2023-03-20T09:39:34;15.20;77.10
31379;DHT22;61664;48.112;11.662;2023-03-20T09:42:25;15.30;78.20
31379;DHT22;61664;48.112;11.662;2023-03-20T09:45:21;15.40;69.10
31379;DHT22;61664;48.112;11.662;2023-03-20T09:51:02;15.60;74.60
31379;DHT22;61664;48.112;11.662;2023-03-20T09:53:40;15.60;73.00
31379;DHT22;61664;48.112;11.662;2023-03-20T09:56:18;15.70;75.90
31379;DHT22;61664;48.112;11.662;2023-03-20T09:58:56;15.70;74.00
31379;DHT22;61664;48.112;11.662;2023-03-20T10:01:39;15.70;73.70
31379;DHT22;61664;48.112;11.662;2023-03-20T10:04:10;15.80;75.40
31379;DHT22;61664;48.112;11.662;2023-03-20T10:06:38;16.00;77.50
31379;DHT22;61664;48.112;11.662;2023-03-20T10:09:20;16.10;75.70
31379;DHT22;61664;48.112;11.662;2023-03-20T10:23:44;18.20;89.50
31379;DHT22;61664;48.112;11.662;2023-03-20T10:26:21;18.80;80.90
31379;DHT22;61664;48.112;11.662;2023-03-20T10:28:55;19.10;76.50
31379;DHT22;61664;48.112;11.662;2023-03-20T10:34:15;19.20;71.70
31379;DHT22;61664;48.112;11.662;2023-03-20T10:40:11;18.70;68.40
31379;DHT22;61664;48.112;11.662;2023-03-20T10:42:47;18.40;64.70
31379;DHT22;61664;48.112;11.662;2023-03-20T10:47:46;17.80;69.70
31379;DHT22;61664;48.112;11.662;2023-03-20T10:50:20;17.50;68.30
31379;DHT22;61664;48.112;11.662;2023-03-20T10:52:54;17.30;69.20
31379;DHT22;61664;48.112;11.662;2023-03-20T10:55:37;17.00;70.90
31379;DHT22;61664;48.112;11.662;2023-03-20T10:58:23;16.90;68.60
31379;DHT22;61664;48.112;11.662;2023-03-20T11:00:55;16.70;65.30
31379;DHT22;61664;48.112;11.662;2023-03-20T11:03:26;16.70;71.60
31379;DHT22;61664;48.112;11.662;2023-03-20T11:06:03;16.60;71.50
31379;DHT22;61664;48.112;11.662;2023-03-20T11:08:39;16.60;68.20
31379;DHT22;61664;48.112;11.662;2023-03-20T11:11:09;16.60;72.10
31379;DHT22;61664;48.112;11.662;2023-03-20T11:13:43;16.60;73.30
31379;DHT22;61664;48.112;11.662;2023-03-20T11:16:20;16.60;69.90
31379;DHT22;61664;48.112;11.662;2023-03-20T11:19:05;16.70;71.50
31379;DHT22;61664;48.112;11.662;2023-03-20T11:21:43;16.80;72.30
31379;DHT22;61664;48.112;11.662;2023-03-20T11:24:25;17.00;73.80
31379;DHT22;61664;48.112;11.662;2023-03-20T11:27:22;17.30;69.00
31379;DHT22;61664;48.112;11.662;2023-03-20T11:29:53;17.60;69.20
31379;DHT22;61664;48.112;11.662;2023-03-20T11:35:30;18.20;70.30
31379;DHT22;61664;48.112;11.662;2023-03-20T11:38:18;18.50;67.60
31379;DHT22;61664;48.112;11.662;2023-03-20T11:40:48;18.60;64.50
31379;DHT22;61664;48.112;11.662;2023-03-20T11:43:21;18.70;71.00
31379;DHT22;61664;48.112;11.662;2023-03-20T11:45:55;18.70;70.00
31379;DHT22;61664;48.112;11.662;2023-03-20T11:51:17;18.80;69.90
31379;DHT22;61664;48.112;11.662;2023-03-20T11:56:22;18.80;68.70
31379;DHT22;61664;48.112;11.662;2023-03-20T12:01:52;18.90;61.20
31379;DHT22;61664;48.112;11.662;2023-03-20T12:04:33;18.80;56.30
31379;DHT22;61664;48.112;11.662;2023-03-20T12:07:13;18.80;63.00
31379;DHT22;61664;48.112;11.662;2023-03-20T12:09:57;18.70;67.10
31379;DHT22;61664;48.112;11.662;2023-03-20T12:12:53;18.60;58.00
31379;DHT22;61664;48.112;11.662;2023-03-20T12:29:57;18.00;65.10
31379;DHT22;61664;48.112;11.662;2023-03-20T12:32:31;17.90;57.70
31379;DHT22;61664;48.112;11.662;2023-03-20T12:35:31;17.80;63.50
31379;DHT22;61664;48.112;11.662;2023-03-20T12:38:03;17.70;57.20
31379;DHT22;61664;48.112;11.662;2023-03-20T12:40:44;17.70;66.80
31379;DHT22;61664;48.112;11.662;2023-03-20T12:43:19;17.60;64.20
31379;DHT22;61664;48.112;11.662;2023-03-20T12:46:42;17.60;63.20
31379;DHT22;61664;48.112;11.662;2023-03-20T12:59:13;17.80;64.90
31379;DHT22;61664;48.112;11.662;2023-03-20T13:02:02;17.80;57.80
31379;DHT22;61664;48.112;11.662;2023-03-20T13:07:52;17.60;67.50
31379;DHT22;61664;48.112;11.662;2023-03-20T13:10:36;17.40;61.90
31379;DHT22;61664;48.112;11.662;2023-03-20T13:13:17;17.30;63.60
31379;DHT22;61664;48.112;11.662;2023-03-20T13:16:25;17.20;63.60
31379;DHT22;61664;48.112;11.662;2023-03-20T13:19:10;17.10;60.90
31379;DHT22;61664;48.112;11.662;2023-03-20T13:22:17;17.10;68.40
31379;DHT22;61664;48.112;11.662;2023-03-20T13:24:54;17.00;58.30
31379;DHT22;61664;48.112;11.662;2023-03-20T13:27:36;16.90;65.30
31379;DHT22;61664;48.112;11.662;2023-03-20T13:30:38;16.90;66.50
31379;DHT22;61664;48.112;11.662;2023-03-20T13:39:02;16.90;53.20
31379;DHT22;61664;48.112;11.662;2023-03-20T13:41:37;16.90;65.30
31379;DHT22;61664;48.112;11.662;2023-03-20T13:44:05;17.00;62.10
31379;DHT22;61664;48.112;11.662;2023-03-20T13:49:26;17.60;66.40
31379;DHT22;61664;48.112;11.662;2023-03-20T13:52:14;18.00;67.20
31379;DHT22;61664;48.112;11.662;2023-03-20T13:58:02;18.90;61.40
31379;DHT22;61664;48.112;11.662;2023-03-20T14:05:57;19.40;58.50
31379;DHT22;61664;48.112;11.662;2023-03-20T14:13:53;19.40;57.10
31379;DHT22;61664;48.112;11.662;2023-03-20T14:16:31;19.60;59.30
31379;DHT22;61664;48.112;11.662;2023-03-20T14:19:17;19.90;65.50
31379;DHT22;61664;48.112;11.662;2023-03-20T14:21:53;20.10;50.40
31379;DHT22;61664;48.112;11.662;2023-03-20T14:24:23;20.50;62.00
31379;DHT22;61664;48.112;11.662;2023-03-20T14:26:58;20.90;66.50
31379;DHT22;61664;48.112;11.662;2023-03-20T14:29:32;21.50;61.30
31379;DHT22;61664;48.112;11.662;2023-03-20T14:32:21;21.70;57.50
31379;DHT22;61664;48.112;11.662;2023-03-20T14:38:10;21.50;51.20
31379;DHT22;61664;48.112;11.662;2023-03-20T14:57:54;19.60;62.10
31379;DHT22;61664;48.112;11.662;2023-03-20T15:00:28;19.50;61.30
31379;DHT22;61664;48.112;11.662;2023-03-20T15:03:07;19.30;56.00
31379;DHT22;61664;48.112;11.662;2023-03-20T15:05:38;19.10;60.50
31379;DHT22;61664;48.112;11.662;2023-03-20T15:08:50;19.00;59.60
31379;DHT22;61664;48.112;11.662;2023-03-20T15:11:05;18.80;58.60
31379;DHT22;61664;48.112;11.662;2023-03-20T15:13:35;18.60;56.50
31379;DHT22;61664;48.112;11.662;2023-03-20T15:16:04;18.50;59.30
31379;DHT22;61664;48.112;11.662;2023-03-20T15:18:42;18.40;61.40
31379;DHT22;61664;48.112;11.662;2023-03-20T15:21:19;18.40;59.00
31379;DHT22;61664;48.112;11.662;2023-03-20T15:23:52;18.60;59.30
31379;DHT22;61664;48.112;11.662;2023-03-20T15:26:21;18.80;64.60
31379;DHT22;61664;48.112;11.662;2023-03-20T15:28:59;19.00;63.20
31379;DHT22;61664;48.112;11.662;2023-03-20T15:31:36;19.40;62.20
31379;DHT22;61664;48.112;11.662;2023-03-20T15:34:19;19.60;59.50
31379;DHT22;61664;48.112;11.662;2023-03-20T15:36:50;19.60;60.60
31379;DHT22;61664;48.112;11.662;2023-03-20T15:39:21;19.50;60.40
31379;DHT22;61664;48.112;11.662;2023-03-20T15:42:02;19.40;59.50
31379;DHT22;61664;48.112;11.662;2023-03-20T15:44:38;19.10;54.60
31379;DHT22;61664;48.112;11.662;2023-03-20T15:49:37;18.90;61.10
31379;DHT22;61664;48.112;11.662;2023-03-20T15:52:15;19.10;63.60
31379;DHT22;61664;48.112;11.662;2023-03-20T15:54:44;19.30;60.20
31379;DHT22;61664;48.112;11.662;2023-03-20T15:57:39;19.40;64.40
31379;DHT22;61664;48.112;11.662;2023-03-20T16:00:16;19.70;59.70
31379;DHT22;61664;48.112;11.662;2023-03-20T16:02:47;20.10;58.80
31379;DHT22;61664;48.112;11.662;2023-03-20T16:05:17;20.30;63.40
31379;DHT22;61664;48.112;11.662;2023-03-20T16:07:46;20.40;61.20
31379;DHT22;61664;48.112;11.662;2023-03-20T16:10:33;20.40;53.70
31379;DHT22;61664;48.112;11.662;2023-03-20T16:13:03;20.20;51.30
31379;DHT22;61664;48.112;11.662;2023-03-20T16:15:32;20.00;58.40
31379;DHT22;61664;48.112;11.662;2023-03-20T16:18:01;19.80;55.00
31379;DHT22;61664;48.112;11.662;2023-03-20T16:20:35;19.40;59.40
31379;DHT22;61664;48.112;11.662;2023-03-20T16:23:08;19.10;57.30
31379;DHT22;61664;48.112;11.662;2023-03-20T16:25:36;18.90;60.20
31379;DHT22;61664;48.112;11.662;2023-03-20T16:28:04;18.70;60.10
31379;DHT22;61664;48.112;11.662;2023-03-20T16:30:34;18.60;60.80
31379;DHT22;61664;48.112;11.662;2023-03-20T16:33:08;18.50;52.60
31379;DHT22;61664;48.112;11.662;2023-03-20T16:35:43;18.40;58.80
31379;DHT22;61664;48.112;11.662;2023-03-20T16:40:58;18.00;59.00
31379;DHT22;61664;48.112;11.662;2023-03-20T16:43:45;17.80;59.40
31379;DHT22;61664;48.112;11.662;2023-03-20T16:46:23;17.50;57.80
31379;DHT22;61664;48.112;11.662;2023-03-20T16:49:39;17.30;55.90
31379;DHT22;61664;48.112;11.662;2023-03-20T16:52:20;17.10;55.50
31379;DHT22;61664;48.112;11.662;2023-03-20T16:54:55;16.90;59.50
31379;DHT22;61664;48.112;11.662;2023-03-20T16:57:24;16.70;59.60
31379;DHT22;61664;48.112;11.662;2023-03-20T17:00:00;16.50;60.70
31379;DHT22;61664;48.112;11.662;2023-03-20T17:02:36;16.30;59.00
31379;DHT22;61664;48.112;11.662;2023-03-20T17:05:11;16.20;59.80
31379;DHT22;61664;48.112;11.662;2023-03-20T17:07:41;16.10;59.70
31379;DHT22;61664;48.112;11.662;2023-03-20T17:10:17;15.90;61.90
31379;DHT22;61664;48.112;11.662;2023-03-20T17:12:50;15.80;61.20
31379;DHT22;61664;48.112;11.662;2023-03-20T17:15:23;15.70;62.80
31379;DHT22;61664;48.112;11.662;2023-03-20T17:17:50;15.60;61.10
31379;DHT22;61664;48.112;11.662;2023-03-20T17:20:19;15.50;63.00
31379;DHT22;61664;48.112;11.662;2023-03-20T17:22:48;15.40;63.20
31379;DHT22;61664;48.112;11.662;2023-03-20T17:25:15;15.30;63.50
31379;DHT22;61664;48.112;11.662;2023-03-20T17:27:42;15.20;63.60
31379;DHT22;61664;48.112;11.662;2023-03-20T17:30:18;15.10;63.70
31379;DHT22;61664;48.112;11.662;2023-03-20T17:32:48;15.00;61.60
31379;DHT22;61664;48.112;11.662;2023-03-20T17:35:15;15.00;64.30
31379;DHT22;61664;48.112;11.662;2023-03-20T17:37:43;14.90;64.40
31379;DHT22;61664;48.112;11.662;2023-03-20T17:40:19;14.80;64.50
31379;DHT22;61664;48.112;11.662;2023-03-20T17:42:47;14.70;63.00
31379;DHT22;61664;48.112;11.662;2023-03-20T17:45:15;14.60;64.80
31379;DHT22;61664;48.112;11.662;2023-03-20T17:47:46;14.50;64.90
31379;DHT22;61664;48.112;11.662;2023-03-20T17:50:21;14.50;65.00
31379;DHT22;61664;48.112;11.662;2023-03-20T17:52:51;14.40;63.00
31379;DHT22;61664;48.112;11.662;2023-03-20T17:55:17;14.30;65.20
31379;DHT22;61664;48.112;11.662;2023-03-20T17:57:45;14.20;65.30
31379;DHT22;61664;48.112;11.662;2023-03-20T18:00:20;14.20;65.40
31379;DHT22;61664;48.112;11.662;2023-03-20T18:02:49;14.10;65.10
31379;DHT22;61664;48.112;11.662;2023-03-20T18:05:16;14.00;65.80
31379;DHT22;61664;48.112;11.662;2023-03-20T18:07:43;13.90;66.10
31379;DHT22;61664;48.112;11.662;2023-03-20T18:10:25;13.90;66.10
31379;DHT22;61664;48.112;11.662;2023-03-20T18:12:58;13.90;63.30
31379;DHT22;61664;48.112;11.662;2023-03-20T18:15:25;13.80;66.40
31379;DHT22;61664;48.112;11.662;2023-03-20T18:17:52;13.70;66.50